»·PEaware :: N516DM KRDD-KPDX

N516DM :: KRDD-KPDX

FLIGHT INFORMATION

Flight Status: Arrived
Operator: Privately registered:
United States
More flights under this callsign
Pilot: Thomas H. (5912)
Aircraft: Unknown
(EPIC)
More flights by this aircraft type
Origin: KRDD Redding Mun
United States
Destination: KPDX Portland Intl
United States
More flights between these airports :: More routes between these airports
Route: MOXEE TMBRS2
File this flight plan on PilotEdge
Remarks:
Altitude:
(Current/Filed)
28,000ft
Speed:
(Current/Filed)
250kts
Departed: 30-Nov-19 09:08 AM
Arrived: 30-Nov-19 10:23 AM
Distance/Time
Traveled:
305nm/1:15
Distance/Time
To Go:
Arrived

Flight Plot

Page will automatically refresh every two minutes.

Flight plan parsing failed; only flown route is shown


Map Options




Map Legend


Flown Route
Filed Route
Departure Airport
Arrival Airport
Navaid (VOR, NDB)
Fix

Horizontal Profiles

Position Reports

Time Latitude Longitude Heading Altitude Ground
Speed
30-Nov-19 08:44 40.508696 -122.297450 0 497ft 0kts
30-Nov-19 08:45 40.508695 -122.297450 0 497ft 0kts
30-Nov-19 08:46 40.508695 -122.297450 0 497ft 0kts
30-Nov-19 08:47 40.508695 -122.297450 0 497ft 0kts
30-Nov-19 08:49 40.508695 -122.297450 0 497ft 0kts
30-Nov-19 08:50 40.508695 -122.297450 0 497ft 0kts
30-Nov-19 08:51 40.508695 -122.297450 0 497ft 0kts
30-Nov-19 08:52 40.508695 -122.297450 0 497ft 0kts
30-Nov-19 08:53 40.508695 -122.297450 0 497ft 0kts
30-Nov-19 08:54 40.508695 -122.297450 0 497ft 0kts
30-Nov-19 08:55 40.508695 -122.297450 0 497ft 0kts
30-Nov-19 08:56 40.508695 -122.297450 0 497ft 0kts
30-Nov-19 08:57 40.508695 -122.297450 0 497ft 0kts
30-Nov-19 08:58 40.508696 -122.297451 359 497ft 0kts
30-Nov-19 08:59 40.508696 -122.297451 359 497ft 0kts
30-Nov-19 09:00 40.508696 -122.297451 360 497ft 0kts
30-Nov-19 09:01 40.508850 -122.297964 251 498ft 6kts
30-Nov-19 09:02 40.511806 -122.298571 5 501ft 20kts
30-Nov-19 09:03 40.516435 -122.296371 30 505ft 15kts
30-Nov-19 09:04 40.520231 -122.295907 74 507ft 0kts
30-Nov-19 09:05 40.520231 -122.295907 74 507ft 0kts
30-Nov-19 09:06 40.520231 -122.295907 74 507ft 0kts
30-Nov-19 09:07 40.519607 -122.294860 179 506ft 0kts
30-Nov-19 09:07 40.499299 -122.294205 176 1333ft 155kts
30-Nov-19 09:09 40.457376 -122.256832 74 4262ft 213kts
30-Nov-19 09:10 40.506107 -122.250909 327 6609ft 228kts
30-Nov-19 09:10 40.548160 -122.284493 327 8928ft 223kts
30-Nov-19 09:11 40.595393 -122.303627 353 10927ft 227kts
30-Nov-19 09:13 40.673910 -122.313074 348 13966ft 221kts
30-Nov-19 09:13 40.726433 -122.319365 344 16247ft 206kts
30-Nov-19 09:14 40.783949 -122.326311 341 18734ft 210kts
30-Nov-19 09:16 40.851752 -122.334471 340 21546ft 214kts
30-Nov-19 09:16 40.902254 -122.340588 340 23354ft 228kts
30-Nov-19 09:17 40.967348 -122.348423 340 25248ft 241kts
30-Nov-19 09:18 41.034024 -122.356480 339 27118ft 243kts
30-Nov-19 09:19 41.103063 -122.364976 340 28095ft 273kts
30-Nov-19 09:20 41.172129 -122.373272 342 28089ft 302kts
30-Nov-19 09:21 41.252882 -122.383065 342 28087ft 315kts
30-Nov-19 09:22 41.341298 -122.393844 342 28075ft 319kts
30-Nov-19 09:23 41.429982 -122.404693 342 28054ft 320kts
30-Nov-19 09:24 41.518226 -122.415517 342 28047ft 316kts
30-Nov-19 09:25 41.604043 -122.426088 342 28048ft 306kts
30-Nov-19 09:26 41.688387 -122.436522 342 28049ft 303kts
30-Nov-19 09:27 41.771805 -122.446839 342 28048ft 301kts
30-Nov-19 09:28 41.854983 -122.457156 342 28049ft 300kts
30-Nov-19 09:29 41.937878 -122.467484 342 28049ft 300kts
30-Nov-19 09:30 42.020710 -122.477817 342 28049ft 299kts
30-Nov-19 09:31 42.103463 -122.488172 342 28048ft 299kts
30-Nov-19 09:32 42.186468 -122.498573 342 28047ft 299kts
30-Nov-19 09:33 42.269120 -122.508963 342 28048ft 300kts
30-Nov-19 09:34 42.351869 -122.519385 342 28048ft 299kts
30-Nov-19 09:35 42.434764 -122.529877 342 28046ft 300kts
30-Nov-19 09:36 42.517541 -122.540359 343 28048ft 299kts
30-Nov-19 09:37 42.600355 -122.550901 343 28047ft 300kts
30-Nov-19 09:38 42.683366 -122.561468 343 28048ft 300kts
30-Nov-19 09:39 42.766451 -122.572110 343 28048ft 301kts
30-Nov-19 09:40 42.849412 -122.582742 343 28048ft 301kts
30-Nov-19 09:41 42.932599 -122.593415 343 28048ft 301kts
30-Nov-19 09:42 43.015646 -122.604120 343 28047ft 300kts
30-Nov-19 09:43 43.098799 -122.614860 343 28053ft 300kts
30-Nov-19 09:44 43.180963 -122.625496 343 28062ft 300kts
30-Nov-19 09:45 43.263778 -122.636250 343 28065ft 300kts
30-Nov-19 09:46 43.346774 -122.647060 343 28065ft 300kts
30-Nov-19 09:47 43.430018 -122.657929 343 28077ft 301kts
30-Nov-19 09:48 43.513215 -122.668820 343 28077ft 302kts
30-Nov-19 09:49 43.596950 -122.679813 343 28077ft 303kts
30-Nov-19 09:50 43.680371 -122.690801 343 28076ft 303kts
30-Nov-19 09:51 43.764124 -122.701869 343 28080ft 302kts
30-Nov-19 09:52 43.847806 -122.712943 343 28075ft 302kts
30-Nov-19 09:53 43.932346 -122.724214 344 27470ft 319kts
30-Nov-19 09:54 44.023260 -122.736340 346 26135ft 336kts
30-Nov-19 09:55 44.115504 -122.748617 347 24775ft 340kts
30-Nov-19 09:56 44.210528 -122.747149 357 23640ft 343kts
30-Nov-19 09:57 44.305737 -122.737788 358 22159ft 342kts
30-Nov-19 09:58 44.400060 -122.728482 358 20811ft 338kts
30-Nov-19 09:59 44.492430 -122.719317 359 19252ft 329kts
30-Nov-19 10:00 44.581384 -122.710489 0 17299ft 315kts
30-Nov-19 10:01 44.667456 -122.701898 1 14925ft 309kts
30-Nov-19 10:02 44.752192 -122.693378 3 12425ft 304kts
30-Nov-19 10:03 44.832532 -122.685282 3 12007ft 277kts
30-Nov-19 10:04 44.907521 -122.677736 3 12008ft 268kts
30-Nov-19 10:05 44.981558 -122.670210 3 12012ft 266kts
30-Nov-19 10:06 45.056778 -122.662565 4 10820ft 283kts
30-Nov-19 10:07 45.135010 -122.654632 5 9054ft 270kts
30-Nov-19 10:08 45.204010 -122.647583 5 8517ft 250kts
30-Nov-19 10:09 45.275367 -122.657240 339 6620ft 264kts
30-Nov-19 10:10 45.337344 -122.691149 340 6986ft 230kts
30-Nov-19 10:11 45.398992 -122.723756 341 6627ft 250kts
30-Nov-19 10:12 45.465815 -122.758080 341 4431ft 254kts
30-Nov-19 10:13 45.528334 -122.790391 329 3032ft 211kts
30-Nov-19 10:14 45.572305 -122.831282 327 3042ft 177kts
30-Nov-19 10:15 45.614727 -122.855403 24 3020ft 167kts
30-Nov-19 10:16 45.646265 -122.821770 84 2634ft 120kts
30-Nov-19 10:17 45.650169 -122.770818 85 2632ft 132kts
30-Nov-19 10:18 45.645157 -122.724868 119 2069ft 115kts
30-Nov-19 10:19 45.629518 -122.684852 118 1458ft 116kts
30-Nov-19 10:20 45.613592 -122.643887 118 835ft 114kts
30-Nov-19 10:21 45.600594 -122.610474 116 307ft 90kts
30-Nov-19 10:22 45.589788 -122.582800 117 31ft 28kts
30-Nov-19 10:23 45.588799 -122.582015 209 30ft 0kts
30-Nov-19 10:24 45.587274 -122.582936 197 26ft 0kts
30-Nov-19 10:25 45.587274 -122.582936 197 26ft 0kts
30-Nov-19 10:26 45.587274 -122.582936 197 26ft 0kts
30-Nov-19 10:27 45.587274 -122.582936 197 26ft 0kts

Navigation Log

Ident Type
Flight plan parsing failed, navigation log unavailable